sensor_id;sensor_type;location;lat;lon;timestamp;temperature;humidity
23815;DHT22;12088;53.078;8.720;2022-08-21T00:01:10;15.30;99.90
23815;DHT22;12088;53.078;8.720;2022-08-21T00:03:37;15.10;99.90
23815;DHT22;12088;53.078;8.720;2022-08-21T00:06:03;15.00;99.90
23815;DHT22;12088;53.078;8.720;2022-08-21T00:08:29;14.90;99.90
23815;DHT22;12088;53.078;8.720;2022-08-21T00:10:54;14.80;99.90
23815;DHT22;12088;53.078;8.720;2022-08-21T00:13:21;14.80;99.90
23815;DHT22;12088;53.078;8.720;2022-08-21T00:15:48;14.90;99.90
23815;DHT22;12088;53.078;8.720;2022-08-21T00:18:14;14.90;99.90
23815;DHT22;12088;53.078;8.720;2022-08-21T00:20:42;14.90;99.90
23815;DHT22;12088;53.078;8.720;2022-08-21T00:23:08;14.90;99.90
23815;DHT22;12088;53.078;8.720;2022-08-21T00:25:34;15.00;99.90
23815;DHT22;12088;53.078;8.720;2022-08-21T00:27:59;15.00;99.90
23815;DHT22;12088;53.078;8.720;2022-08-21T00:30:27;14.90;99.90
23815;DHT22;12088;53.078;8.720;2022-08-21T00:32:54;14.90;99.90
23815;DHT22;12088;53.078;8.720;2022-08-21T00:35:26;14.80;99.90
23815;DHT22;12088;53.078;8.720;2022-08-21T00:37:52;14.80;99.90
23815;DHT22;12088;53.078;8.720;2022-08-21T00:40:22;14.80;99.90
23815;DHT22;12088;53.078;8.720;2022-08-21T00:42:48;14.80;99.90
23815;DHT22;12088;53.078;8.720;2022-08-21T00:45:15;14.70;99.90
23815;DHT22;12088;53.078;8.720;2022-08-21T00:47:40;14.60;99.90
23815;DHT22;12088;53.078;8.720;2022-08-21T00:50:09;14.60;99.90
23815;DHT22;12088;53.078;8.720;2022-08-21T00:52:36;14.60;99.90
23815;DHT22;12088;53.078;8.720;2022-08-21T00:55:05;14.60;99.90
23815;DHT22;12088;53.078;8.720;2022-08-21T00:57:36;14.60;99.90
23815;DHT22;12088;53.078;8.720;2022-08-21T01:00:08;14.60;99.90
23815;DHT22;12088;53.078;8.720;2022-08-21T01:02:35;14.60;99.90
23815;DHT22;12088;53.078;8.720;2022-08-21T01:05:01;14.80;99.90
23815;DHT22;12088;53.078;8.720;2022-08-21T01:07:26;14.70;99.90
23815;DHT22;12088;53.078;8.720;2022-08-21T01:09:52;14.70;99.90
23815;DHT22;12088;53.078;8.720;2022-08-21T01:12:18;14.80;99.90
23815;DHT22;12088;53.078;8.720;2022-08-21T01:14:44;14.70;99.90
23815;DHT22;12088;53.078;8.720;2022-08-21T01:17:12;14.70;99.90
23815;DHT22;12088;53.078;8.720;2022-08-21T01:19:39;14.60;99.90
23815;DHT22;12088;53.078;8.720;2022-08-21T01:22:05;14.50;99.90
23815;DHT22;12088;53.078;8.720;2022-08-21T01:24:30;14.40;99.90
23815;DHT22;12088;53.078;8.720;2022-08-21T01:27:00;14.40;99.90
23815;DHT22;12088;53.078;8.720;2022-08-21T01:29:30;14.40;99.90
23815;DHT22;12088;53.078;8.720;2022-08-21T01:31:58;14.30;99.90
23815;DHT22;12088;53.078;8.720;2022-08-21T01:34:24;14.40;99.90
23815;DHT22;12088;53.078;8.720;2022-08-21T01:36:49;14.30;99.90
23815;DHT22;12088;53.078;8.720;2022-08-21T01:39:15;14.30;99.90
23815;DHT22;12088;53.078;8.720;2022-08-21T01:41:41;14.40;99.90
23815;DHT22;12088;53.078;8.720;2022-08-21T01:44:07;14.30;99.90
23815;DHT22;12088;53.078;8.720;2022-08-21T01:46:32;14.20;99.90
23815;DHT22;12088;53.078;8.720;2022-08-21T01:48:58;14.10;99.90
23815;DHT22;12088;53.078;8.720;2022-08-21T01:51:24;14.00;99.90
23815;DHT22;12088;53.078;8.720;2022-08-21T01:53:49;14.00;99.90
23815;DHT22;12088;53.078;8.720;2022-08-21T01:56:16;13.90;99.90
23815;DHT22;12088;53.078;8.720;2022-08-21T01:58:44;13.90;99.90
23815;DHT22;12088;53.078;8.720;2022-08-21T02:01:10;13.90;99.90
23815;DHT22;12088;53.078;8.720;2022-08-21T02:03:36;13.90;99.90
23815;DHT22;12088;53.078;8.720;2022-08-21T02:06:04;13.90;99.90
23815;DHT22;12088;53.078;8.720;2022-08-21T02:08:30;13.90;99.90
23815;DHT22;12088;53.078;8.720;2022-08-21T02:10:55;13.80;99.90
23815;DHT22;12088;53.078;8.720;2022-08-21T02:13:21;13.90;99.90
23815;DHT22;12088;53.078;8.720;2022-08-21T02:15:46;13.90;99.90
23815;DHT22;12088;53.078;8.720;2022-08-21T02:18:12;13.90;99.90
23815;DHT22;12088;53.078;8.720;2022-08-21T02:20:42;13.80;99.90
23815;DHT22;12088;53.078;8.720;2022-08-21T02:23:09;13.80;99.90
23815;DHT22;12088;53.078;8.720;2022-08-21T02:25:36;13.80;99.90
23815;DHT22;12088;53.078;8.720;2022-08-21T02:28:07;13.80;99.90
23815;DHT22;12088;53.078;8.720;2022-08-21T02:30:36;13.80;99.90
23815;DHT22;12088;53.078;8.720;2022-08-21T02:33:05;13.80;99.90
23815;DHT22;12088;53.078;8.720;2022-08-21T02:35:31;13.80;99.90
23815;DHT22;12088;53.078;8.720;2022-08-21T02:37:59;13.80;99.90
23815;DHT22;12088;53.078;8.720;2022-08-21T02:40:28;13.70;99.90
23815;DHT22;12088;53.078;8.720;2022-08-21T02:42:56;13.70;99.90
23815;DHT22;12088;53.078;8.720;2022-08-21T02:45:22;13.70;99.90
23815;DHT22;12088;53.078;8.720;2022-08-21T02:47:50;13.70;99.90
23815;DHT22;12088;53.078;8.720;2022-08-21T02:50:25;13.50;99.90
23815;DHT22;12088;53.078;8.720;2022-08-21T02:52:51;13.40;99.90
23815;DHT22;12088;53.078;8.720;2022-08-21T02:55:18;13.50;99.90
23815;DHT22;12088;53.078;8.720;2022-08-21T02:57:44;13.50;99.90
23815;DHT22;12088;53.078;8.720;2022-08-21T03:00:10;13.50;99.90
23815;DHT22;12088;53.078;8.720;2022-08-21T03:02:37;13.50;99.90
23815;DHT22;12088;53.078;8.720;2022-08-21T03:05:03;13.60;99.90
23815;DHT22;12088;53.078;8.720;2022-08-21T03:07:29;13.80;99.90
23815;DHT22;12088;53.078;8.720;2022-08-21T03:09:55;13.90;99.90
23815;DHT22;12088;53.078;8.720;2022-08-21T03:12:21;14.10;99.90
23815;DHT22;12088;53.078;8.720;2022-08-21T03:14:46;14.10;99.90
23815;DHT22;12088;53.078;8.720;2022-08-21T03:17:11;14.10;99.90
23815;DHT22;12088;53.078;8.720;2022-08-21T03:19:37;14.20;99.90
23815;DHT22;12088;53.078;8.720;2022-08-21T03:22:03;14.10;99.90
23815;DHT22;12088;53.078;8.720;2022-08-21T03:24:28;14.10;99.90
23815;DHT22;12088;53.078;8.720;2022-08-21T03:26:54;14.00;99.90
23815;DHT22;12088;53.078;8.720;2022-08-21T03:29:20;14.00;99.90
23815;DHT22;12088;53.078;8.720;2022-08-21T03:31:45;13.90;99.90
23815;DHT22;12088;53.078;8.720;2022-08-21T03:34:10;13.90;99.90
23815;DHT22;12088;53.078;8.720;2022-08-21T03:36:36;13.80;99.90
23815;DHT22;12088;53.078;8.720;2022-08-21T03:39:03;13.70;99.90
23815;DHT22;12088;53.078;8.720;2022-08-21T03:41:28;13.80;99.90
23815;DHT22;12088;53.078;8.720;2022-08-21T03:43:54;13.80;99.90
23815;DHT22;12088;53.078;8.720;2022-08-21T03:46:20;13.80;99.90
23815;DHT22;12088;53.078;8.720;2022-08-21T03:48:45;13.80;99.90
23815;DHT22;12088;53.078;8.720;2022-08-21T03:51:11;13.80;99.90
23815;DHT22;12088;53.078;8.720;2022-08-21T03:53:37;13.80;99.90
23815;DHT22;12088;53.078;8.720;2022-08-21T03:56:03;13.80;99.90
23815;DHT22;12088;53.078;8.720;2022-08-21T03:58:29;13.80;99.90
23815;DHT22;12088;53.078;8.720;2022-08-21T04:00:57;13.70;99.90
23815;DHT22;12088;53.078;8.720;2022-08-21T04:03:23;13.60;99.90
23815;DHT22;12088;53.078;8.720;2022-08-21T04:05:49;13.70;99.90
23815;DHT22;12088;53.078;8.720;2022-08-21T04:08:16;13.70;99.90
23815;DHT22;12088;53.078;8.720;2022-08-21T04:10:45;13.80;99.90
23815;DHT22;12088;53.078;8.720;2022-08-21T04:13:11;13.80;99.90
23815;DHT22;12088;53.078;8.720;2022-08-21T04:15:37;13.70;99.90
23815;DHT22;12088;53.078;8.720;2022-08-21T04:18:04;13.70;99.90
23815;DHT22;12088;53.078;8.720;2022-08-21T04:20:29;13.60;99.90
23815;DHT22;12088;53.078;8.720;2022-08-21T04:22:55;13.60;99.90
23815;DHT22;12088;53.078;8.720;2022-08-21T04:25:23;13.50;99.90
23815;DHT22;12088;53.078;8.720;2022-08-21T04:27:48;13.40;99.90
23815;DHT22;12088;53.078;8.720;2022-08-21T04:30:15;13.50;99.90
23815;DHT22;12088;53.078;8.720;2022-08-21T04:32:45;13.40;99.90
23815;DHT22;12088;53.078;8.720;2022-08-21T04:35:14;13.40;99.90
23815;DHT22;12088;53.078;8.720;2022-08-21T04:37:40;13.40;99.90
23815;DHT22;12088;53.078;8.720;2022-08-21T04:40:06;13.30;99.90
23815;DHT22;12088;53.078;8.720;2022-08-21T04:42:32;13.30;99.90
23815;DHT22;12088;53.078;8.720;2022-08-21T04:44:58;13.30;99.90
23815;DHT22;12088;53.078;8.720;2022-08-21T04:47:24;13.30;99.90
23815;DHT22;12088;53.078;8.720;2022-08-21T04:49:50;13.30;99.90
23815;DHT22;12088;53.078;8.720;2022-08-21T04:52:18;13.40;99.90
23815;DHT22;12088;53.078;8.720;2022-08-21T04:54:45;13.40;99.90
23815;DHT22;12088;53.078;8.720;2022-08-21T04:57:11;13.40;99.90
23815;DHT22;12088;53.078;8.720;2022-08-21T04:59:41;13.50;99.90
23815;DHT22;12088;53.078;8.720;2022-08-21T05:02:08;13.60;99.90
23815;DHT22;12088;53.078;8.720;2022-08-21T05:04:37;13.60;99.90
23815;DHT22;12088;53.078;8.720;2022-08-21T05:07:05;13.70;99.90
23815;DHT22;12088;53.078;8.720;2022-08-21T05:09:32;13.70;99.90
23815;DHT22;12088;53.078;8.720;2022-08-21T05:12:01;13.70;99.90
23815;DHT22;12088;53.078;8.720;2022-08-21T05:14:27;13.70;99.90
23815;DHT22;12088;53.078;8.720;2022-08-21T05:16:52;13.90;99.90
23815;DHT22;12088;53.078;8.720;2022-08-21T05:19:18;13.90;99.90
23815;DHT22;12088;53.078;8.720;2022-08-21T05:21:44;13.90;99.90
23815;DHT22;12088;53.078;8.720;2022-08-21T05:24:11;14.00;99.90
23815;DHT22;12088;53.078;8.720;2022-08-21T05:26:37;14.10;99.90
23815;DHT22;12088;53.078;8.720;2022-08-21T05:29:03;14.20;99.90
23815;DHT22;12088;53.078;8.720;2022-08-21T05:31:29;14.30;99.90
23815;DHT22;12088;53.078;8.720;2022-08-21T05:33:55;14.30;99.90
23815;DHT22;12088;53.078;8.720;2022-08-21T05:36:21;14.40;99.90
23815;DHT22;12088;53.078;8.720;2022-08-21T05:38:46;14.40;99.90
23815;DHT22;12088;53.078;8.720;2022-08-21T05:41:12;14.40;99.90
23815;DHT22;12088;53.078;8.720;2022-08-21T05:43:37;14.50;99.90
23815;DHT22;12088;53.078;8.720;2022-08-21T05:46:04;14.60;99.90
23815;DHT22;12088;53.078;8.720;2022-08-21T05:48:31;14.70;99.90
23815;DHT22;12088;53.078;8.720;2022-08-21T05:50:57;14.80;99.90
23815;DHT22;12088;53.078;8.720;2022-08-21T05:53:23;14.80;99.90
23815;DHT22;12088;53.078;8.720;2022-08-21T05:55:49;14.90;99.90
23815;DHT22;12088;53.078;8.720;2022-08-21T05:58:17;14.80;99.90
23815;DHT22;12088;53.078;8.720;2022-08-21T06:00:44;14.80;99.90
23815;DHT22;12088;53.078;8.720;2022-08-21T06:03:18;14.80;99.90
23815;DHT22;12088;53.078;8.720;2022-08-21T06:05:43;14.90;99.90
23815;DHT22;12088;53.078;8.720;2022-08-21T06:08:09;15.00;99.90
23815;DHT22;12088;53.078;8.720;2022-08-21T06:10:35;15.10;99.90
23815;DHT22;12088;53.078;8.720;2022-08-21T06:13:00;15.20;99.90
23815;DHT22;12088;53.078;8.720;2022-08-21T06:15:26;15.20;99.90
23815;DHT22;12088;53.078;8.720;2022-08-21T06:17:54;15.30;99.90
23815;DHT22;12088;53.078;8.720;2022-08-21T06:20:20;15.40;99.90
23815;DHT22;12088;53.078;8.720;2022-08-21T06:22:46;15.60;99.90
23815;DHT22;12088;53.078;8.720;2022-08-21T06:25:12;15.70;99.90
23815;DHT22;12088;53.078;8.720;2022-08-21T06:27:37;15.90;99.90
23815;DHT22;12088;53.078;8.720;2022-08-21T06:30:04;16.00;99.90
23815;DHT22;12088;53.078;8.720;2022-08-21T06:32:30;16.20;99.90
23815;DHT22;12088;53.078;8.720;2022-08-21T06:34:56;16.40;99.90
23815;DHT22;12088;53.078;8.720;2022-08-21T06:37:21;16.60;99.90
23815;DHT22;12088;53.078;8.720;2022-08-21T06:39:47;16.80;99.90
23815;DHT22;12088;53.078;8.720;2022-08-21T06:42:15;16.90;99.90
23815;DHT22;12088;53.078;8.720;2022-08-21T06:44:41;17.00;99.90
23815;DHT22;12088;53.078;8.720;2022-08-21T06:47:06;17.20;99.90
23815;DHT22;12088;53.078;8.720;2022-08-21T06:49:32;17.40;99.90
23815;DHT22;12088;53.078;8.720;2022-08-21T06:51:57;17.40;99.90
23815;DHT22;12088;53.078;8.720;2022-08-21T06:54:23;17.50;99.90
23815;DHT22;12088;53.078;8.720;2022-08-21T06:56:48;17.60;99.90
23815;DHT22;12088;53.078;8.720;2022-08-21T06:59:14;17.70;99.90
23815;DHT22;12088;53.078;8.720;2022-08-21T07:01:39;17.70;99.90
23815;DHT22;12088;53.078;8.720;2022-08-21T07:04:05;17.80;99.90
23815;DHT22;12088;53.078;8.720;2022-08-21T07:06:31;17.90;99.90
23815;DHT22;12088;53.078;8.720;2022-08-21T07:08:56;18.00;99.90
23815;DHT22;12088;53.078;8.720;2022-08-21T07:11:23;18.20;99.90
23815;DHT22;12088;53.078;8.720;2022-08-21T07:13:50;18.40;99.90
23815;DHT22;12088;53.078;8.720;2022-08-21T07:16:18;18.60;99.90
23815;DHT22;12088;53.078;8.720;2022-08-21T07:18:43;18.90;99.90
23815;DHT22;12088;53.078;8.720;2022-08-21T07:21:09;19.30;99.90
23815;DHT22;12088;53.078;8.720;2022-08-21T07:23:39;19.60;99.90
23815;DHT22;12088;53.078;8.720;2022-08-21T07:26:05;19.90;99.90
23815;DHT22;12088;53.078;8.720;2022-08-21T07:28:31;20.10;99.90
23815;DHT22;12088;53.078;8.720;2022-08-21T07:30:58;20.20;99.90
23815;DHT22;12088;53.078;8.720;2022-08-21T07:33:26;20.40;99.90
23815;DHT22;12088;53.078;8.720;2022-08-21T07:35:52;20.60;99.90
23815;DHT22;12088;53.078;8.720;2022-08-21T07:38:18;20.80;99.90
23815;DHT22;12088;53.078;8.720;2022-08-21T07:40:45;20.80;99.90
23815;DHT22;12088;53.078;8.720;2022-08-21T07:43:11;20.90;99.90
23815;DHT22;12088;53.078;8.720;2022-08-21T07:45:37;21.00;99.90
23815;DHT22;12088;53.078;8.720;2022-08-21T07:48:03;20.90;99.90
23815;DHT22;12088;53.078;8.720;2022-08-21T07:50:29;21.00;99.90
23815;DHT22;12088;53.078;8.720;2022-08-21T07:52:54;21.10;99.90
23815;DHT22;12088;53.078;8.720;2022-08-21T07:55:21;21.00;99.90
23815;DHT22;12088;53.078;8.720;2022-08-21T07:57:47;21.10;99.90
23815;DHT22;12088;53.078;8.720;2022-08-21T08:00:19;20.90;99.90
23815;DHT22;12088;53.078;8.720;2022-08-21T08:02:47;20.90;99.90
23815;DHT22;12088;53.078;8.720;2022-08-21T08:05:15;21.00;99.90
23815;DHT22;12088;53.078;8.720;2022-08-21T08:07:41;21.10;99.90
23815;DHT22;12088;53.078;8.720;2022-08-21T08:10:07;21.20;99.90
23815;DHT22;12088;53.078;8.720;2022-08-21T08:12:35;21.10;99.90
23815;DHT22;12088;53.078;8.720;2022-08-21T08:15:01;21.40;99.90
23815;DHT22;12088;53.078;8.720;2022-08-21T08:17:27;21.60;99.90
23815;DHT22;12088;53.078;8.720;2022-08-21T08:19:53;21.80;99.90
23815;DHT22;12088;53.078;8.720;2022-08-21T08:22:21;22.20;99.90
23815;DHT22;12088;53.078;8.720;2022-08-21T08:24:50;22.60;99.90
23815;DHT22;12088;53.078;8.720;2022-08-21T08:27:16;22.90;99.90
23815;DHT22;12088;53.078;8.720;2022-08-21T08:29:42;23.60;99.90
23815;DHT22;12088;53.078;8.720;2022-08-21T08:32:08;24.00;99.90
23815;DHT22;12088;53.078;8.720;2022-08-21T08:34:34;24.80;99.90
23815;DHT22;12088;53.078;8.720;2022-08-21T08:37:00;25.10;99.90
23815;DHT22;12088;53.078;8.720;2022-08-21T08:39:26;26.00;99.90
23815;DHT22;12088;53.078;8.720;2022-08-21T08:42:07;26.90;99.90
23815;DHT22;12088;53.078;8.720;2022-08-21T08:44:33;27.90;99.90
23815;DHT22;12088;53.078;8.720;2022-08-21T08:46:59;28.40;99.90
23815;DHT22;12088;53.078;8.720;2022-08-21T08:49:33;28.60;99.90
23815;DHT22;12088;53.078;8.720;2022-08-21T08:52:07;28.80;99.90
23815;DHT22;12088;53.078;8.720;2022-08-21T08:54:55;29.60;99.90
23815;DHT22;12088;53.078;8.720;2022-08-21T08:57:24;30.00;99.90
23815;DHT22;12088;53.078;8.720;2022-08-21T08:59:53;28.60;99.90
23815;DHT22;12088;53.078;8.720;2022-08-21T09:02:20;27.50;99.90
23815;DHT22;12088;53.078;8.720;2022-08-21T09:04:47;28.60;99.90
23815;DHT22;12088;53.078;8.720;2022-08-21T09:12:40;27.80;99.90
23815;DHT22;12088;53.078;8.720;2022-08-21T09:15:36;28.60;99.90
23815;DHT22;12088;53.078;8.720;2022-08-21T09:21:09;29.40;99.90
23815;DHT22;12088;53.078;8.720;2022-08-21T09:23:50;30.00;99.90
23815;DHT22;12088;53.078;8.720;2022-08-21T09:26:19;30.60;99.90
23815;DHT22;12088;53.078;8.720;2022-08-21T09:28:52;31.40;99.90
23815;DHT22;12088;53.078;8.720;2022-08-21T09:31:33;32.80;99.90
23815;DHT22;12088;53.078;8.720;2022-08-21T09:34:10;33.50;99.90
23815;DHT22;12088;53.078;8.720;2022-08-21T09:36:57;34.20;99.50
23815;DHT22;12088;53.078;8.720;2022-08-21T09:39:37;34.10;98.20
23815;DHT22;12088;53.078;8.720;2022-08-21T09:42:06;33.10;98.10
23815;DHT22;12088;53.078;8.720;2022-08-21T09:44:37;34.20;97.60
23815;DHT22;12088;53.078;8.720;2022-08-21T09:47:06;34.10;95.40
23815;DHT22;12088;53.078;8.720;2022-08-21T09:49:38;33.20;96.50
23815;DHT22;12088;53.078;8.720;2022-08-21T09:52:17;31.70;97.00
23815;DHT22;12088;53.078;8.720;2022-08-21T09:54:45;30.30;97.50
23815;DHT22;12088;53.078;8.720;2022-08-21T09:57:12;28.90;98.80
23815;DHT22;12088;53.078;8.720;2022-08-21T10:00:15;28.00;99.90
23815;DHT22;12088;53.078;8.720;2022-08-21T10:02:41;29.30;99.90
23815;DHT22;12088;53.078;8.720;2022-08-21T10:05:15;30.80;99.50
23815;DHT22;12088;53.078;8.720;2022-08-21T10:07:41;32.30;99.60
23815;DHT22;12088;53.078;8.720;2022-08-21T10:10:28;32.40;97.00
23815;DHT22;12088;53.078;8.720;2022-08-21T10:13:16;31.60;97.80
23815;DHT22;12088;53.078;8.720;2022-08-21T10:15:56;33.00;97.60
23815;DHT22;12088;53.078;8.720;2022-08-21T10:18:40;33.80;94.70
23815;DHT22;12088;53.078;8.720;2022-08-21T10:21:17;33.10;94.60
23815;DHT22;12088;53.078;8.720;2022-08-21T10:24:25;32.60;94.40
23815;DHT22;12088;53.078;8.720;2022-08-21T10:30:30;34.00;94.50
23815;DHT22;12088;53.078;8.720;2022-08-21T10:35:46;34.70;92.90
23815;DHT22;12088;53.078;8.720;2022-08-21T10:38:40;35.70;92.80
23815;DHT22;12088;53.078;8.720;2022-08-21T10:44:02;37.40;91.90
23815;DHT22;12088;53.078;8.720;2022-08-21T10:50:09;36.20;86.60
23815;DHT22;12088;53.078;8.720;2022-08-21T10:53:00;36.00;85.80
23815;DHT22;12088;53.078;8.720;2022-08-21T10:55:36;36.20;88.20
23815;DHT22;12088;53.078;8.720;2022-08-21T10:58:09;36.40;85.90
23815;DHT22;12088;53.078;8.720;2022-08-21T11:00:45;37.20;88.40
23815;DHT22;12088;53.078;8.720;2022-08-21T11:03:21;37.80;88.30
23815;DHT22;12088;53.078;8.720;2022-08-21T11:05:52;38.50;85.20
23815;DHT22;12088;53.078;8.720;2022-08-21T11:08:22;38.50;81.70
23815;DHT22;12088;53.078;8.720;2022-08-21T11:11:01;38.50;80.90
23815;DHT22;12088;53.078;8.720;2022-08-21T11:13:47;37.10;80.90
23815;DHT22;12088;53.078;8.720;2022-08-21T11:17:05;36.30;86.70
23815;DHT22;12088;53.078;8.720;2022-08-21T11:19:45;36.50;80.00
23815;DHT22;12088;53.078;8.720;2022-08-21T11:22:24;36.50;82.70
23815;DHT22;12088;53.078;8.720;2022-08-21T11:25:00;36.60;85.00
23815;DHT22;12088;53.078;8.720;2022-08-21T11:27:39;38.20;83.70
23815;DHT22;12088;53.078;8.720;2022-08-21T11:30:07;37.60;80.00
23815;DHT22;12088;53.078;8.720;2022-08-21T11:35:10;38.50;79.30
23815;DHT22;12088;53.078;8.720;2022-08-21T11:37:50;38.70;76.10
23815;DHT22;12088;53.078;8.720;2022-08-21T11:43:23;38.80;75.10
23815;DHT22;12088;53.078;8.720;2022-08-21T11:45:56;36.80;75.10
23815;DHT22;12088;53.078;8.720;2022-08-21T11:48:55;35.70;80.90
23815;DHT22;12088;53.078;8.720;2022-08-21T11:51:48;36.10;76.00
23815;DHT22;12088;53.078;8.720;2022-08-21T11:57:17;38.60;76.50
23815;DHT22;12088;53.078;8.720;2022-08-21T11:59:53;39.20;73.80
23815;DHT22;12088;53.078;8.720;2022-08-21T12:02:24;40.00;75.00
23815;DHT22;12088;53.078;8.720;2022-08-21T12:05:03;41.00;74.20
23815;DHT22;12088;53.078;8.720;2022-08-21T12:07:34;41.40;72.60
23815;DHT22;12088;53.078;8.720;2022-08-21T12:10:02;40.60;68.80
23815;DHT22;12088;53.078;8.720;2022-08-21T12:12:31;38.60;71.10
23815;DHT22;12088;53.078;8.720;2022-08-21T12:17:39;38.50;70.60
23815;DHT22;12088;53.078;8.720;2022-08-21T12:22:53;36.70;75.00
23815;DHT22;12088;53.078;8.720;2022-08-21T12:25:20;37.80;75.10
23815;DHT22;12088;53.078;8.720;2022-08-21T12:27:47;38.30;73.60
23815;DHT22;12088;53.078;8.720;2022-08-21T12:32:59;38.20;74.80
23815;DHT22;12088;53.078;8.720;2022-08-21T12:35:32;38.30;75.50
23815;DHT22;12088;53.078;8.720;2022-08-21T12:38:39;39.20;71.40
23815;DHT22;12088;53.078;8.720;2022-08-21T12:41:16;39.70;72.10
23815;DHT22;12088;53.078;8.720;2022-08-21T12:44:31;39.40;70.60
23815;DHT22;12088;53.078;8.720;2022-08-21T12:46:37;39.80;69.90
23815;DHT22;12088;53.078;8.720;2022-08-21T12:52:20;40.60;71.00
23815;DHT22;12088;53.078;8.720;2022-08-21T12:54:43;39.60;69.10
23815;DHT22;12088;53.078;8.720;2022-08-21T12:59:45;40.30;71.00
23815;DHT22;12088;53.078;8.720;2022-08-21T13:02:16;39.10;69.80
23815;DHT22;12088;53.078;8.720;2022-08-21T13:04:44;36.90;69.10
23815;DHT22;12088;53.078;8.720;2022-08-21T13:07:13;35.20;73.50
23815;DHT22;12088;53.078;8.720;2022-08-21T13:09:48;33.50;78.50
23815;DHT22;12088;53.078;8.720;2022-08-21T13:12:16;34.00;83.10
23815;DHT22;12088;53.078;8.720;2022-08-21T13:14:44;35.10;77.50
23815;DHT22;12088;53.078;8.720;2022-08-21T13:17:12;36.10;72.70
23815;DHT22;12088;53.078;8.720;2022-08-21T13:19:38;37.00;74.40
23815;DHT22;12088;53.078;8.720;2022-08-21T13:22:03;37.80;73.20
23815;DHT22;12088;53.078;8.720;2022-08-21T13:24:37;38.30;72.90
23815;DHT22;12088;53.078;8.720;2022-08-21T13:27:04;37.70;72.20
23815;DHT22;12088;53.078;8.720;2022-08-21T13:29:40;38.00;72.30
23815;DHT22;12088;53.078;8.720;2022-08-21T13:32:05;37.20;71.10
23815;DHT22;12088;53.078;8.720;2022-08-21T13:34:36;36.90;75.10
23815;DHT22;12088;53.078;8.720;2022-08-21T13:37:05;38.10;72.00
23815;DHT22;12088;53.078;8.720;2022-08-21T13:39:31;38.70;69.50
23815;DHT22;12088;53.078;8.720;2022-08-21T13:41:59;38.60;70.20
23815;DHT22;12088;53.078;8.720;2022-08-21T13:44:35;38.60;65.40
23815;DHT22;12088;53.078;8.720;2022-08-21T13:47:03;38.70;70.00
23815;DHT22;12088;53.078;8.720;2022-08-21T13:49:38;37.80;69.30
23815;DHT22;12088;53.078;8.720;2022-08-21T13:52:05;36.50;71.90
23815;DHT22;12088;53.078;8.720;2022-08-21T13:54:41;36.80;74.60
23815;DHT22;12088;53.078;8.720;2022-08-21T13:57:17;36.90;72.20
23815;DHT22;12088;53.078;8.720;2022-08-21T13:59:43;35.10;74.30
23815;DHT22;12088;53.078;8.720;2022-08-21T14:02:14;34.70;76.00
23815;DHT22;12088;53.078;8.720;2022-08-21T14:07:40;35.60;74.50
23815;DHT22;12088;53.078;8.720;2022-08-21T14:10:17;36.30;67.00
23815;DHT22;12088;53.078;8.720;2022-08-21T14:12:48;37.10;69.30
23815;DHT22;12088;53.078;8.720;2022-08-21T14:15:18;38.10;65.30
23815;DHT22;12088;53.078;8.720;2022-08-21T14:17:47;38.00;70.10
23815;DHT22;12088;53.078;8.720;2022-08-21T14:20:29;38.00;67.20
23815;DHT22;12088;53.078;8.720;2022-08-21T14:22:55;37.50;67.10
23815;DHT22;12088;53.078;8.720;2022-08-21T14:30:35;34.80;69.80
23815;DHT22;12088;53.078;8.720;2022-08-21T14:33:03;33.20;72.50
23815;DHT22;12088;53.078;8.720;2022-08-21T14:35:29;32.10;78.20
23815;DHT22;12088;53.078;8.720;2022-08-21T14:37:55;31.20;84.50
23815;DHT22;12088;53.078;8.720;2022-08-21T14:40:23;31.40;80.40
23815;DHT22;12088;53.078;8.720;2022-08-21T14:42:49;31.70;79.50
23815;DHT22;12088;53.078;8.720;2022-08-21T14:45:22;32.90;78.50
23815;DHT22;12088;53.078;8.720;2022-08-21T14:47:48;33.60;78.20
23815;DHT22;12088;53.078;8.720;2022-08-21T14:50:14;34.50;72.00
23815;DHT22;12088;53.078;8.720;2022-08-21T14:52:40;34.50;74.10
23815;DHT22;12088;53.078;8.720;2022-08-21T14:55:07;34.50;72.70
23815;DHT22;12088;53.078;8.720;2022-08-21T14:57:36;34.60;75.80
23815;DHT22;12088;53.078;8.720;2022-08-21T15:00:03;33.80;75.30
23815;DHT22;12088;53.078;8.720;2022-08-21T15:02:29;33.50;74.00
23815;DHT22;12088;53.078;8.720;2022-08-21T15:04:55;32.80;79.30
23815;DHT22;12088;53.078;8.720;2022-08-21T15:07:20;32.30;75.60
23815;DHT22;12088;53.078;8.720;2022-08-21T15:09:46;31.60;78.70
23815;DHT22;12088;53.078;8.720;2022-08-21T15:12:12;31.00;81.10
23815;DHT22;12088;53.078;8.720;2022-08-21T15:14:40;30.20;81.60
23815;DHT22;12088;53.078;8.720;2022-08-21T15:17:09;30.10;84.50
23815;DHT22;12088;53.078;8.720;2022-08-21T15:19:36;30.00;82.60
23815;DHT22;12088;53.078;8.720;2022-08-21T15:22:02;29.80;88.40
23815;DHT22;12088;53.078;8.720;2022-08-21T15:24:28;29.60;89.00
23815;DHT22;12088;53.078;8.720;2022-08-21T15:26:54;29.40;87.00
23815;DHT22;12088;53.078;8.720;2022-08-21T15:29:21;29.10;88.30
23815;DHT22;12088;53.078;8.720;2022-08-21T15:31:55;28.80;85.80
23815;DHT22;12088;53.078;8.720;2022-08-21T15:34:23;28.60;87.80
23815;DHT22;12088;53.078;8.720;2022-08-21T15:36:49;28.70;89.00
23815;DHT22;12088;53.078;8.720;2022-08-21T15:39:14;28.80;88.40
23815;DHT22;12088;53.078;8.720;2022-08-21T15:41:40;28.90;89.30
23815;DHT22;12088;53.078;8.720;2022-08-21T15:44:06;28.90;90.20
23815;DHT22;12088;53.078;8.720;2022-08-21T15:46:34;28.80;87.00
23815;DHT22;12088;53.078;8.720;2022-08-21T15:48:59;28.50;91.10
23815;DHT22;12088;53.078;8.720;2022-08-21T15:51:25;28.20;90.20
23815;DHT22;12088;53.078;8.720;2022-08-21T15:53:50;27.90;90.30
23815;DHT22;12088;53.078;8.720;2022-08-21T15:56:26;27.60;91.40
23815;DHT22;12088;53.078;8.720;2022-08-21T15:59:00;27.30;90.30
23815;DHT22;12088;53.078;8.720;2022-08-21T16:01:26;27.00;91.40
23815;DHT22;12088;53.078;8.720;2022-08-21T16:03:53;26.90;91.40
23815;DHT22;12088;53.078;8.720;2022-08-21T16:06:19;26.80;92.70
23815;DHT22;12088;53.078;8.720;2022-08-21T16:08:45;26.60;92.30
23815;DHT22;12088;53.078;8.720;2022-08-21T16:11:12;26.50;93.80
23815;DHT22;12088;53.078;8.720;2022-08-21T16:13:40;26.30;93.80
23815;DHT22;12088;53.078;8.720;2022-08-21T16:16:09;26.10;93.10
23815;DHT22;12088;53.078;8.720;2022-08-21T16:18:35;25.90;92.20
23815;DHT22;12088;53.078;8.720;2022-08-21T16:21:01;25.90;94.60
23815;DHT22;12088;53.078;8.720;2022-08-21T16:23:26;25.70;95.30
23815;DHT22;12088;53.078;8.720;2022-08-21T16:25:52;25.70;94.10
23815;DHT22;12088;53.078;8.720;2022-08-21T16:28:19;25.60;94.20
23815;DHT22;12088;53.078;8.720;2022-08-21T16:30:48;25.50;95.50
23815;DHT22;12088;53.078;8.720;2022-08-21T16:33:29;25.50;95.80